Flight Number: EUR1168 Duration: 1:00
Departure: London City Airport (EGLC) at 21:15 Distance: 205 Nm
Arrival: Paris Charles-de-Gaulle (LFPG) at 22:15 Equipment: CRJ700

Weather Information
London City Airport, United Kingdom (EGLC) 51-30N 000-30W Jan 21, 2019 - 06:50 AM EST / 2019.01.21 1150 UTC
Wind: from the SSW (210 degrees) at 5 MPH (4 KT) (direction variable):0
Visibility: 4 mile(s):0 Temperature: 41 F (5 C) Dew Point: 33 F (1 C) Relative Humidity: 75% Pressure (altimeter): 30.21 in. Hg (1023 hPa)
ob: EGLC 211150Z AUTO 21004KT 170V240 7000 NCD 05/01 Q1023 cycle: 12
Sunrise: 07:56 Sunset: 16:25 (UTC)

Paris-Aeroport Charles De Gaulle, France (LFPG) 49-01N 002-32E 109M Jan 21, 2019 - 07:00 AM EST / 2019.01.21 1200 UTC
Wind: from the NE (050 degrees) at 7 MPH (6 KT) (direction variable):0
Visibility: 4 mile(s):0 Temperature: 33 F (1 C)
Windchill: 26 F (-3 C):1 Dew Point: 26 F (-3 C) Relative Humidity: 74% Pressure (altimeter): 30.21 in. Hg (1023 hPa)
ob: LFPG 211200Z 05006KT 350V090 8000 NSC 01/M03 Q1023 NOSIG cycle: 12
Sunrise: 07:37 Sunset: 16:25 (UTC)

TAF:2019/01/21 12:22 TAF LFPG 211100Z 2112/2218 02003KT 6000 NSC TX02/2114Z TNM02/2200Z BECMG 2122/2124 20010KT BECMG 2205/2207 4000 -SN BKN010 TEMPO 2208/2212 1500 SN BKN004 BECMG 2212/2214 6000 NSW BKN010 PROB40 TEMPO 2213/2215 -SHRASN BKN008

Previous Pireps for this route
Date Aircraft Flight time Fuel used Landing rate On time
2013-01-27CRJ70000.543706-221Yes
2013-08-09B73700.588696-506Charter
2013-08-11CRJ70000.5515086-404No
2013-10-24CRJ7001.0065530No
2013-10-25B1900D1.2070000No
2014-04-17CRJ7001.0054860No
2015-05-06CRJ7000.5520200Yes
2015-07-05CRJ7000.552080-163Yes
2015-07-07CRJ7000.562009-201Yes
2015-07-08CRJ7000.582485-179Yes
2015-08-18CRJ7000.542091-83Yes
(pireps marked green are flown by you)

Route map